Terminal Aerodrome Forecast
Issued by NWS Twin Cities, MN

Home | Current Version | Previous Version | Graphics & Text | Print | Product List | Glossary On
Versions: 1 2 3 4 5 6 7 8 9 10 11 12 13 14
000
FTUS43 KMPX 221120
TAFEAU
TAF
KEAU 221120Z 2212/2312 25007KT P6SM SCT090 BKN200
     FM221700 27009KT P6SM BKN050
     FM230200 32004KT P6SM VCSH BKN050
     FM230500 VRB03KT P6SM BKN090=

USA.gov is the U.S. government's official web portal to all federal, state and local government web resources and services.